X  ZavřítMETAR data      LKPD Pardubice Airport

Teplota

10°C Teplota

8°C Rosný bod

88% Vlhkost



Vítr

 3 KM/H

 2 MPH

 1 M/S

 2 KTS



230°
JZ směr
Současné podmínky

Převážně polojasno Převážně polojasno
Tlak vzduchu 1015.92 (hPa) - 30 (in)
Dohlednost 6.2 (mi) - 10 (km)
Letiště
Kód letiště LKPD

Lokace Pardubice Airport 80 (km)

Metar:
LKPD 200944Z 23002KT 9999 SCT010 10/08 Q1016 RMK BLU

Čas: 20-04-2021 11:44